sensor_id;sensor_type;location;lat;lon;timestamp;temperature;humidity
21115;DHT22;10715;48.546;9.896;2022-12-29T00:00:10;3.70;99.90
21115;DHT22;10715;48.546;9.896;2022-12-29T00:02:36;3.80;99.90
21115;DHT22;10715;48.546;9.896;2022-12-29T00:05:02;3.80;99.90
21115;DHT22;10715;48.546;9.896;2022-12-29T00:07:27;3.90;99.90
21115;DHT22;10715;48.546;9.896;2022-12-29T00:09:53;3.90;99.90
21115;DHT22;10715;48.546;9.896;2022-12-29T00:12:19;3.90;99.90
21115;DHT22;10715;48.546;9.896;2022-12-29T00:14:44;3.90;99.90
21115;DHT22;10715;48.546;9.896;2022-12-29T00:17:29;3.80;99.90
21115;DHT22;10715;48.546;9.896;2022-12-29T00:19:55;3.80;99.90
21115;DHT22;10715;48.546;9.896;2022-12-29T00:22:39;3.90;99.90
21115;DHT22;10715;48.546;9.896;2022-12-29T00:25:23;3.90;99.90
21115;DHT22;10715;48.546;9.896;2022-12-29T00:28:08;3.90;99.90
21115;DHT22;10715;48.546;9.896;2022-12-29T00:30:53;3.90;99.90
21115;DHT22;10715;48.546;9.896;2022-12-29T00:33:37;3.90;99.90
21115;DHT22;10715;48.546;9.896;2022-12-29T00:36:36;4.00;99.90
21115;DHT22;10715;48.546;9.896;2022-12-29T00:39:12;4.00;99.90
21115;DHT22;10715;48.546;9.896;2022-12-29T00:42:02;4.00;99.90
21115;DHT22;10715;48.546;9.896;2022-12-29T00:45:03;4.10;99.90
21115;DHT22;10715;48.546;9.896;2022-12-29T00:47:29;4.20;99.90
21115;DHT22;10715;48.546;9.896;2022-12-29T00:49:54;4.30;99.90
21115;DHT22;10715;48.546;9.896;2022-12-29T00:52:20;4.30;99.90
21115;DHT22;10715;48.546;9.896;2022-12-29T00:54:46;4.30;99.90
21115;DHT22;10715;48.546;9.896;2022-12-29T00:57:12;4.30;99.90
21115;DHT22;10715;48.546;9.896;2022-12-29T00:59:39;4.30;99.90
21115;DHT22;10715;48.546;9.896;2022-12-29T01:02:05;4.40;99.90
21115;DHT22;10715;48.546;9.896;2022-12-29T01:04:31;4.40;99.90
21115;DHT22;10715;48.546;9.896;2022-12-29T01:06:57;4.50;99.90
21115;DHT22;10715;48.546;9.896;2022-12-29T01:09:23;4.50;99.90
21115;DHT22;10715;48.546;9.896;2022-12-29T01:12:08;4.50;99.90
21115;DHT22;10715;48.546;9.896;2022-12-29T01:14:35;4.50;99.90
21115;DHT22;10715;48.546;9.896;2022-12-29T01:17:01;4.60;99.90
21115;DHT22;10715;48.546;9.896;2022-12-29T01:19:26;4.60;99.90
21115;DHT22;10715;48.546;9.896;2022-12-29T01:21:52;4.60;99.90
21115;DHT22;10715;48.546;9.896;2022-12-29T01:24:19;4.50;99.90
21115;DHT22;10715;48.546;9.896;2022-12-29T01:26:45;4.50;99.90
21115;DHT22;10715;48.546;9.896;2022-12-29T01:29:11;4.50;99.90
21115;DHT22;10715;48.546;9.896;2022-12-29T01:31:37;4.40;99.90
21115;DHT22;10715;48.546;9.896;2022-12-29T01:34:03;4.40;99.90
21115;DHT22;10715;48.546;9.896;2022-12-29T01:36:29;4.40;99.90
21115;DHT22;10715;48.546;9.896;2022-12-29T01:38:55;4.40;99.90
21115;DHT22;10715;48.546;9.896;2022-12-29T01:41:21;4.40;99.90
21115;DHT22;10715;48.546;9.896;2022-12-29T01:43:48;4.40;99.90
21115;DHT22;10715;48.546;9.896;2022-12-29T01:46:34;4.40;99.90
21115;DHT22;10715;48.546;9.896;2022-12-29T01:49:10;4.40;99.90
21115;DHT22;10715;48.546;9.896;2022-12-29T01:51:58;4.40;99.90
21115;DHT22;10715;48.546;9.896;2022-12-29T01:54:32;4.40;99.90
21115;DHT22;10715;48.546;9.896;2022-12-29T01:57:01;4.40;99.90
21115;DHT22;10715;48.546;9.896;2022-12-29T01:59:32;4.40;99.90
21115;DHT22;10715;48.546;9.896;2022-12-29T02:01:58;4.40;99.90
21115;DHT22;10715;48.546;9.896;2022-12-29T02:04:26;4.40;99.90
21115;DHT22;10715;48.546;9.896;2022-12-29T02:07:05;4.50;99.90
21115;DHT22;10715;48.546;9.896;2022-12-29T02:09:32;4.50;99.90
21115;DHT22;10715;48.546;9.896;2022-12-29T02:11:59;4.50;99.90
21115;DHT22;10715;48.546;9.896;2022-12-29T02:14:25;4.50;99.90
21115;DHT22;10715;48.546;9.896;2022-12-29T02:27:53;4.80;99.90
21115;DHT22;10715;48.546;9.896;2022-12-29T02:30:33;4.80;99.90
21115;DHT22;10715;48.546;9.896;2022-12-29T02:38:42;4.90;99.90
21115;DHT22;10715;48.546;9.896;2022-12-29T02:41:40;5.00;99.90
21115;DHT22;10715;48.546;9.896;2022-12-29T02:49:27;5.10;99.90
21115;DHT22;10715;48.546;9.896;2022-12-29T02:52:12;5.10;99.90
21115;DHT22;10715;48.546;9.896;2022-12-29T02:54:40;5.10;99.90
21115;DHT22;10715;48.546;9.896;2022-12-29T02:57:31;5.10;99.90
21115;DHT22;10715;48.546;9.896;2022-12-29T03:00:23;5.10;99.90
21115;DHT22;10715;48.546;9.896;2022-12-29T03:03:15;5.10;99.90
21115;DHT22;10715;48.546;9.896;2022-12-29T03:12:02;5.10;99.90
21115;DHT22;10715;48.546;9.896;2022-12-29T03:14:59;5.00;99.90
21115;DHT22;10715;48.546;9.896;2022-12-29T03:20:51;5.10;99.90
21115;DHT22;10715;48.546;9.896;2022-12-29T03:23:20;5.10;99.90
21115;DHT22;10715;48.546;9.896;2022-12-29T03:25:52;5.10;99.90
21115;DHT22;10715;48.546;9.896;2022-12-29T03:28:32;5.10;99.90
21115;DHT22;10715;48.546;9.896;2022-12-29T03:31:02;5.10;99.90
21115;DHT22;10715;48.546;9.896;2022-12-29T03:33:29;5.10;99.90
21115;DHT22;10715;48.546;9.896;2022-12-29T03:36:05;5.10;99.90
21115;DHT22;10715;48.546;9.896;2022-12-29T03:38:37;5.00;99.90
21115;DHT22;10715;48.546;9.896;2022-12-29T03:41:07;5.00;99.90
21115;DHT22;10715;48.546;9.896;2022-12-29T03:43:34;5.00;99.90
21115;DHT22;10715;48.546;9.896;2022-12-29T03:46:00;5.00;99.90
21115;DHT22;10715;48.546;9.896;2022-12-29T03:48:26;5.00;99.90
21115;DHT22;10715;48.546;9.896;2022-12-29T03:50:51;4.90;99.90
21115;DHT22;10715;48.546;9.896;2022-12-29T03:53:18;4.90;99.90
21115;DHT22;10715;48.546;9.896;2022-12-29T03:55:43;4.90;99.90
21115;DHT22;10715;48.546;9.896;2022-12-29T03:58:09;4.90;99.90
21115;DHT22;10715;48.546;9.896;2022-12-29T04:00:35;4.90;99.90
21115;DHT22;10715;48.546;9.896;2022-12-29T04:03:00;4.80;99.90
21115;DHT22;10715;48.546;9.896;2022-12-29T04:05:26;4.90;99.90
21115;DHT22;10715;48.546;9.896;2022-12-29T04:07:52;4.90;99.90
21115;DHT22;10715;48.546;9.896;2022-12-29T04:10:17;4.90;99.90
21115;DHT22;10715;48.546;9.896;2022-12-29T04:12:43;4.80;99.90
21115;DHT22;10715;48.546;9.896;2022-12-29T04:15:11;4.80;99.90
21115;DHT22;10715;48.546;9.896;2022-12-29T04:17:36;4.70;99.90
21115;DHT22;10715;48.546;9.896;2022-12-29T04:20:03;4.70;99.90
21115;DHT22;10715;48.546;9.896;2022-12-29T04:22:47;4.70;99.90
21115;DHT22;10715;48.546;9.896;2022-12-29T04:25:13;4.60;99.90
21115;DHT22;10715;48.546;9.896;2022-12-29T04:27:39;4.50;99.90
21115;DHT22;10715;48.546;9.896;2022-12-29T04:30:05;4.40;99.90
21115;DHT22;10715;48.546;9.896;2022-12-29T04:32:30;4.30;99.90
21115;DHT22;10715;48.546;9.896;2022-12-29T04:34:56;4.30;99.90
21115;DHT22;10715;48.546;9.896;2022-12-29T04:37:22;4.20;99.90
21115;DHT22;10715;48.546;9.896;2022-12-29T04:39:48;4.10;99.90
21115;DHT22;10715;48.546;9.896;2022-12-29T04:42:13;4.10;99.90
21115;DHT22;10715;48.546;9.896;2022-12-29T04:44:39;4.10;99.90
21115;DHT22;10715;48.546;9.896;2022-12-29T04:47:05;4.00;99.90
21115;DHT22;10715;48.546;9.896;2022-12-29T04:49:30;4.00;99.90
21115;DHT22;10715;48.546;9.896;2022-12-29T04:51:56;4.00;99.90
21115;DHT22;10715;48.546;9.896;2022-12-29T04:54:22;4.00;99.90
21115;DHT22;10715;48.546;9.896;2022-12-29T04:56:48;4.00;99.90
21115;DHT22;10715;48.546;9.896;2022-12-29T04:59:13;3.90;99.90
21115;DHT22;10715;48.546;9.896;2022-12-29T05:01:39;3.90;99.90
21115;DHT22;10715;48.546;9.896;2022-12-29T05:04:05;3.80;99.90
21115;DHT22;10715;48.546;9.896;2022-12-29T05:06:30;3.70;99.90
21115;DHT22;10715;48.546;9.896;2022-12-29T05:08:56;3.60;99.90
21115;DHT22;10715;48.546;9.896;2022-12-29T05:11:22;3.60;99.90
21115;DHT22;10715;48.546;9.896;2022-12-29T05:13:47;3.50;99.90
21115;DHT22;10715;48.546;9.896;2022-12-29T05:16:13;3.40;99.90
21115;DHT22;10715;48.546;9.896;2022-12-29T05:18:39;3.40;99.90
21115;DHT22;10715;48.546;9.896;2022-12-29T05:21:04;3.30;99.90
21115;DHT22;10715;48.546;9.896;2022-12-29T05:23:30;3.30;99.90
21115;DHT22;10715;48.546;9.896;2022-12-29T05:25:56;3.20;99.90
21115;DHT22;10715;48.546;9.896;2022-12-29T05:28:22;3.20;99.90
21115;DHT22;10715;48.546;9.896;2022-12-29T05:30:49;3.20;99.90
21115;DHT22;10715;48.546;9.896;2022-12-29T05:33:17;3.10;99.90
21115;DHT22;10715;48.546;9.896;2022-12-29T05:35:43;3.00;99.90
21115;DHT22;10715;48.546;9.896;2022-12-29T05:38:08;3.00;99.90
21115;DHT22;10715;48.546;9.896;2022-12-29T05:40:34;3.00;99.90
21115;DHT22;10715;48.546;9.896;2022-12-29T05:43:00;3.00;99.90
21115;DHT22;10715;48.546;9.896;2022-12-29T05:45:26;3.00;99.90
21115;DHT22;10715;48.546;9.896;2022-12-29T05:47:51;3.00;99.90
21115;DHT22;10715;48.546;9.896;2022-12-29T05:50:17;3.00;99.90
21115;DHT22;10715;48.546;9.896;2022-12-29T05:52:43;3.00;99.90
21115;DHT22;10715;48.546;9.896;2022-12-29T05:55:09;3.00;99.90
21115;DHT22;10715;48.546;9.896;2022-12-29T05:57:35;3.00;99.90
21115;DHT22;10715;48.546;9.896;2022-12-29T06:00:01;2.90;99.90
21115;DHT22;10715;48.546;9.896;2022-12-29T06:02:27;2.90;99.90
21115;DHT22;10715;48.546;9.896;2022-12-29T06:04:52;2.90;99.90
21115;DHT22;10715;48.546;9.896;2022-12-29T06:07:18;3.00;99.90
21115;DHT22;10715;48.546;9.896;2022-12-29T06:09:44;3.00;99.90
21115;DHT22;10715;48.546;9.896;2022-12-29T06:12:09;3.10;99.90
21115;DHT22;10715;48.546;9.896;2022-12-29T06:14:35;3.20;99.90
21115;DHT22;10715;48.546;9.896;2022-12-29T06:17:01;3.30;99.90
21115;DHT22;10715;48.546;9.896;2022-12-29T06:19:26;3.30;99.90
21115;DHT22;10715;48.546;9.896;2022-12-29T06:21:52;3.20;99.90
21115;DHT22;10715;48.546;9.896;2022-12-29T06:24:20;3.20;99.90
21115;DHT22;10715;48.546;9.896;2022-12-29T06:26:46;3.20;99.90
21115;DHT22;10715;48.546;9.896;2022-12-29T06:29:12;3.10;99.90
21115;DHT22;10715;48.546;9.896;2022-12-29T06:31:42;3.00;99.90
21115;DHT22;10715;48.546;9.896;2022-12-29T06:34:08;3.00;99.90
21115;DHT22;10715;48.546;9.896;2022-12-29T06:36:34;2.90;99.90
21115;DHT22;10715;48.546;9.896;2022-12-29T06:39:00;2.80;99.90
21115;DHT22;10715;48.546;9.896;2022-12-29T06:41:26;2.80;99.90
21115;DHT22;10715;48.546;9.896;2022-12-29T06:43:51;2.70;99.90
21115;DHT22;10715;48.546;9.896;2022-12-29T06:46:17;2.70;99.90
21115;DHT22;10715;48.546;9.896;2022-12-29T06:48:43;2.60;99.90
21115;DHT22;10715;48.546;9.896;2022-12-29T06:51:08;2.60;99.90
21115;DHT22;10715;48.546;9.896;2022-12-29T06:53:34;2.60;99.90
21115;DHT22;10715;48.546;9.896;2022-12-29T06:56:00;2.70;99.90
21115;DHT22;10715;48.546;9.896;2022-12-29T06:58:25;2.70;99.90
21115;DHT22;10715;48.546;9.896;2022-12-29T07:00:51;2.60;99.90
21115;DHT22;10715;48.546;9.896;2022-12-29T07:03:17;2.60;99.90
21115;DHT22;10715;48.546;9.896;2022-12-29T07:05:42;2.60;99.90
21115;DHT22;10715;48.546;9.896;2022-12-29T07:08:08;2.60;99.90
21115;DHT22;10715;48.546;9.896;2022-12-29T07:10:34;2.60;99.90
21115;DHT22;10715;48.546;9.896;2022-12-29T07:13:00;2.60;99.90
21115;DHT22;10715;48.546;9.896;2022-12-29T07:15:25;2.60;99.90
21115;DHT22;10715;48.546;9.896;2022-12-29T07:17:51;2.60;99.90
21115;DHT22;10715;48.546;9.896;2022-12-29T07:20:17;2.60;99.90
21115;DHT22;10715;48.546;9.896;2022-12-29T07:22:43;2.70;99.90
21115;DHT22;10715;48.546;9.896;2022-12-29T07:25:10;2.80;99.90
21115;DHT22;10715;48.546;9.896;2022-12-29T07:27:35;3.10;99.90
21115;DHT22;10715;48.546;9.896;2022-12-29T07:30:01;3.30;99.90
21115;DHT22;10715;48.546;9.896;2022-12-29T07:32:27;3.50;99.90
21115;DHT22;10715;48.546;9.896;2022-12-29T07:34:52;3.60;99.90
21115;DHT22;10715;48.546;9.896;2022-12-29T07:37:18;3.60;99.90
21115;DHT22;10715;48.546;9.896;2022-12-29T07:39:44;3.60;99.90
21115;DHT22;10715;48.546;9.896;2022-12-29T07:42:09;3.60;99.90
21115;DHT22;10715;48.546;9.896;2022-12-29T07:44:35;3.70;99.90
21115;DHT22;10715;48.546;9.896;2022-12-29T07:47:02;3.70;99.90
21115;DHT22;10715;48.546;9.896;2022-12-29T07:49:28;3.70;99.90
21115;DHT22;10715;48.546;9.896;2022-12-29T07:51:53;3.70;99.90
21115;DHT22;10715;48.546;9.896;2022-12-29T07:54:19;3.70;99.90
21115;DHT22;10715;48.546;9.896;2022-12-29T07:56:45;3.60;99.90
21115;DHT22;10715;48.546;9.896;2022-12-29T07:59:11;3.60;99.90
21115;DHT22;10715;48.546;9.896;2022-12-29T08:01:37;3.70;99.90
21115;DHT22;10715;48.546;9.896;2022-12-29T08:04:03;3.80;99.90
21115;DHT22;10715;48.546;9.896;2022-12-29T08:06:29;3.80;99.90
21115;DHT22;10715;48.546;9.896;2022-12-29T08:08:56;4.00;99.90
21115;DHT22;10715;48.546;9.896;2022-12-29T08:11:23;4.10;99.90
21115;DHT22;10715;48.546;9.896;2022-12-29T08:13:49;4.20;99.90
21115;DHT22;10715;48.546;9.896;2022-12-29T08:16:14;4.30;99.90
21115;DHT22;10715;48.546;9.896;2022-12-29T08:18:40;4.40;99.90
21115;DHT22;10715;48.546;9.896;2022-12-29T08:21:06;4.50;99.90
21115;DHT22;10715;48.546;9.896;2022-12-29T08:23:32;4.60;99.90
21115;DHT22;10715;48.546;9.896;2022-12-29T08:25:59;4.70;99.90
21115;DHT22;10715;48.546;9.896;2022-12-29T08:28:26;4.80;99.90
21115;DHT22;10715;48.546;9.896;2022-12-29T08:30:53;4.90;99.90
21115;DHT22;10715;48.546;9.896;2022-12-29T08:33:19;5.00;99.90
21115;DHT22;10715;48.546;9.896;2022-12-29T08:35:45;5.10;99.90
21115;DHT22;10715;48.546;9.896;2022-12-29T08:38:10;5.20;99.90
21115;DHT22;10715;48.546;9.896;2022-12-29T08:40:39;5.30;99.90
21115;DHT22;10715;48.546;9.896;2022-12-29T08:43:04;5.50;99.90
21115;DHT22;10715;48.546;9.896;2022-12-29T08:45:31;5.60;99.90
21115;DHT22;10715;48.546;9.896;2022-12-29T08:47:57;5.60;99.90
21115;DHT22;10715;48.546;9.896;2022-12-29T08:50:22;5.70;99.90
21115;DHT22;10715;48.546;9.896;2022-12-29T08:52:48;5.80;99.90
21115;DHT22;10715;48.546;9.896;2022-12-29T08:55:14;5.90;99.90
21115;DHT22;10715;48.546;9.896;2022-12-29T08:57:40;6.00;99.90
21115;DHT22;10715;48.546;9.896;2022-12-29T09:00:06;6.10;99.90
21115;DHT22;10715;48.546;9.896;2022-12-29T09:02:32;6.30;99.90
21115;DHT22;10715;48.546;9.896;2022-12-29T09:04:58;6.50;99.90
21115;DHT22;10715;48.546;9.896;2022-12-29T09:07:24;6.60;99.90
21115;DHT22;10715;48.546;9.896;2022-12-29T09:09:50;6.70;99.90
21115;DHT22;10715;48.546;9.896;2022-12-29T09:12:17;6.80;99.90
21115;DHT22;10715;48.546;9.896;2022-12-29T09:14:43;6.90;99.90
21115;DHT22;10715;48.546;9.896;2022-12-29T09:17:10;7.00;99.90
21115;DHT22;10715;48.546;9.896;2022-12-29T09:19:54;7.20;99.90
21115;DHT22;10715;48.546;9.896;2022-12-29T09:22:20;7.30;99.90
21115;DHT22;10715;48.546;9.896;2022-12-29T09:24:46;7.50;99.90
21115;DHT22;10715;48.546;9.896;2022-12-29T09:27:12;7.80;99.90
21115;DHT22;10715;48.546;9.896;2022-12-29T09:29:38;8.10;99.90
21115;DHT22;10715;48.546;9.896;2022-12-29T09:32:04;8.30;99.90
21115;DHT22;10715;48.546;9.896;2022-12-29T09:34:30;8.40;99.90
21115;DHT22;10715;48.546;9.896;2022-12-29T09:36:55;8.50;99.90
21115;DHT22;10715;48.546;9.896;2022-12-29T09:39:22;8.50;99.90
21115;DHT22;10715;48.546;9.896;2022-12-29T09:47:25;8.30;99.90
21115;DHT22;10715;48.546;9.896;2022-12-29T09:50:23;8.40;99.90
21115;DHT22;10715;48.546;9.896;2022-12-29T09:52:50;8.40;99.90
21115;DHT22;10715;48.546;9.896;2022-12-29T09:55:22;8.50;99.90
21115;DHT22;10715;48.546;9.896;2022-12-29T09:57:54;8.60;99.90
21115;DHT22;10715;48.546;9.896;2022-12-29T10:00:28;8.70;99.90
21115;DHT22;10715;48.546;9.896;2022-12-29T10:03:05;9.10;99.90
21115;DHT22;10715;48.546;9.896;2022-12-29T10:09:12;11.20;99.90
21115;DHT22;10715;48.546;9.896;2022-12-29T10:20:16;9.70;99.90
21115;DHT22;10715;48.546;9.896;2022-12-29T10:25:26;9.30;99.90
21115;DHT22;10715;48.546;9.896;2022-12-29T10:27:55;9.30;99.90
21115;DHT22;10715;48.546;9.896;2022-12-29T10:30:23;9.30;99.90
21115;DHT22;10715;48.546;9.896;2022-12-29T10:32:56;9.30;99.90
21115;DHT22;10715;48.546;9.896;2022-12-29T10:35:36;9.30;99.90
21115;DHT22;10715;48.546;9.896;2022-12-29T10:40:52;9.40;99.90
21115;DHT22;10715;48.546;9.896;2022-12-29T10:43:28;9.40;99.90
21115;DHT22;10715;48.546;9.896;2022-12-29T10:46:08;9.60;99.90
21115;DHT22;10715;48.546;9.896;2022-12-29T10:48:35;9.60;99.90
21115;DHT22;10715;48.546;9.896;2022-12-29T10:51:04;9.50;99.90
21115;DHT22;10715;48.546;9.896;2022-12-29T10:53:42;9.40;99.90
21115;DHT22;10715;48.546;9.896;2022-12-29T10:58:57;9.20;99.90
21115;DHT22;10715;48.546;9.896;2022-12-29T11:01:31;9.10;99.90
21115;DHT22;10715;48.546;9.896;2022-12-29T11:04:19;9.00;99.90
21115;DHT22;10715;48.546;9.896;2022-12-29T11:06:49;8.90;99.90
21115;DHT22;10715;48.546;9.896;2022-12-29T11:09:44;8.80;99.90
21115;DHT22;10715;48.546;9.896;2022-12-29T11:12:26;8.70;99.90
21115;DHT22;10715;48.546;9.896;2022-12-29T11:15:15;8.60;99.90
21115;DHT22;10715;48.546;9.896;2022-12-29T11:22:52;8.40;99.90
21115;DHT22;10715;48.546;9.896;2022-12-29T11:25:18;8.40;99.90
21115;DHT22;10715;48.546;9.896;2022-12-29T11:30:26;8.40;99.90
21115;DHT22;10715;48.546;9.896;2022-12-29T11:32:53;8.40;99.90
21115;DHT22;10715;48.546;9.896;2022-12-29T11:35:31;8.40;99.90
21115;DHT22;10715;48.546;9.896;2022-12-29T11:37:58;8.40;99.90
21115;DHT22;10715;48.546;9.896;2022-12-29T11:40:24;8.40;99.90
21115;DHT22;10715;48.546;9.896;2022-12-29T11:42:51;8.50;99.90
21115;DHT22;10715;48.546;9.896;2022-12-29T11:45:18;8.60;99.90
21115;DHT22;10715;48.546;9.896;2022-12-29T11:47:47;8.70;99.90
21115;DHT22;10715;48.546;9.896;2022-12-29T11:50:30;8.80;99.90
21115;DHT22;10715;48.546;9.896;2022-12-29T11:55:39;8.90;99.90
21115;DHT22;10715;48.546;9.896;2022-12-29T11:58:06;8.90;99.90
21115;DHT22;10715;48.546;9.896;2022-12-29T12:00:35;9.00;99.90
21115;DHT22;10715;48.546;9.896;2022-12-29T12:03:17;9.00;99.90
21115;DHT22;10715;48.546;9.896;2022-12-29T12:06:00;9.10;99.90
21115;DHT22;10715;48.546;9.896;2022-12-29T12:11:20;9.20;99.90
21115;DHT22;10715;48.546;9.896;2022-12-29T12:17:18;9.50;99.90
21115;DHT22;10715;48.546;9.896;2022-12-29T12:19:59;9.60;99.90
21115;DHT22;10715;48.546;9.896;2022-12-29T12:24:59;9.70;99.90
21115;DHT22;10715;48.546;9.896;2022-12-29T12:27:32;9.70;99.90
21115;DHT22;10715;48.546;9.896;2022-12-29T12:30:14;9.70;99.90
21115;DHT22;10715;48.546;9.896;2022-12-29T12:33:06;9.70;99.90
21115;DHT22;10715;48.546;9.896;2022-12-29T12:43:43;9.50;99.90
21115;DHT22;10715;48.546;9.896;2022-12-29T12:51:50;9.30;99.90
21115;DHT22;10715;48.546;9.896;2022-12-29T12:57:28;9.10;99.90
21115;DHT22;10715;48.546;9.896;2022-12-29T13:00:04;9.00;99.90
21115;DHT22;10715;48.546;9.896;2022-12-29T13:05:41;8.90;99.90
21115;DHT22;10715;48.546;9.896;2022-12-29T13:08:34;8.90;99.90
21115;DHT22;10715;48.546;9.896;2022-12-29T13:11:22;9.00;99.90
21115;DHT22;10715;48.546;9.896;2022-12-29T13:24:20;9.20;99.90
21115;DHT22;10715;48.546;9.896;2022-12-29T13:27:00;9.20;99.90
21115;DHT22;10715;48.546;9.896;2022-12-29T13:29:36;9.20;99.90
21115;DHT22;10715;48.546;9.896;2022-12-29T13:32:31;9.20;99.90
21115;DHT22;10715;48.546;9.896;2022-12-29T13:40:34;9.00;99.90
21115;DHT22;10715;48.546;9.896;2022-12-29T13:43:05;9.00;99.90
21115;DHT22;10715;48.546;9.896;2022-12-29T13:45:32;9.00;99.90
21115;DHT22;10715;48.546;9.896;2022-12-29T13:48:22;8.90;99.90
21115;DHT22;10715;48.546;9.896;2022-12-29T13:50:55;8.90;99.90
21115;DHT22;10715;48.546;9.896;2022-12-29T13:53:41;8.80;99.90
21115;DHT22;10715;48.546;9.896;2022-12-29T13:56:12;8.70;99.90
21115;DHT22;10715;48.546;9.896;2022-12-29T14:01:35;8.60;99.90
21115;DHT22;10715;48.546;9.896;2022-12-29T14:04:30;8.60;99.90
21115;DHT22;10715;48.546;9.896;2022-12-29T14:07:15;8.60;99.90
21115;DHT22;10715;48.546;9.896;2022-12-29T14:09:52;8.60;99.90
21115;DHT22;10715;48.546;9.896;2022-12-29T14:12:29;8.50;99.90
21115;DHT22;10715;48.546;9.896;2022-12-29T14:17:32;8.50;99.90
21115;DHT22;10715;48.546;9.896;2022-12-29T14:19:58;8.50;99.90
21115;DHT22;10715;48.546;9.896;2022-12-29T14:22:25;8.50;99.90
21115;DHT22;10715;48.546;9.896;2022-12-29T14:24:51;8.50;99.90
21115;DHT22;10715;48.546;9.896;2022-12-29T14:29:44;8.50;99.90
21115;DHT22;10715;48.546;9.896;2022-12-29T14:32:35;8.50;99.90
21115;DHT22;10715;48.546;9.896;2022-12-29T14:35:38;8.40;99.90
21115;DHT22;10715;48.546;9.896;2022-12-29T14:38:18;8.40;99.90
21115;DHT22;10715;48.546;9.896;2022-12-29T14:40:44;8.30;99.90
21115;DHT22;10715;48.546;9.896;2022-12-29T14:43:22;8.30;99.90
21115;DHT22;10715;48.546;9.896;2022-12-29T14:46:02;8.10;99.90
21115;DHT22;10715;48.546;9.896;2022-12-29T14:48:32;8.10;99.90
21115;DHT22;10715;48.546;9.896;2022-12-29T14:50:58;8.00;99.90
21115;DHT22;10715;48.546;9.896;2022-12-29T14:53:50;7.90;99.90
21115;DHT22;10715;48.546;9.896;2022-12-29T14:56:24;7.80;99.90
21115;DHT22;10715;48.546;9.896;2022-12-29T14:59:00;7.70;99.90
21115;DHT22;10715;48.546;9.896;2022-12-29T15:04:03;7.50;99.90
21115;DHT22;10715;48.546;9.896;2022-12-29T15:06:30;7.40;99.90
21115;DHT22;10715;48.546;9.896;2022-12-29T15:09:10;7.30;99.90
21115;DHT22;10715;48.546;9.896;2022-12-29T15:15:10;7.10;99.90
21115;DHT22;10715;48.546;9.896;2022-12-29T15:17:31;6.90;99.90
21115;DHT22;10715;48.546;9.896;2022-12-29T15:20:17;6.80;99.90
21115;DHT22;10715;48.546;9.896;2022-12-29T15:22:50;6.60;99.90
21115;DHT22;10715;48.546;9.896;2022-12-29T15:25:17;6.50;99.90
21115;DHT22;10715;48.546;9.896;2022-12-29T15:27:56;6.40;99.90
21115;DHT22;10715;48.546;9.896;2022-12-29T15:30:23;6.30;99.90
21115;DHT22;10715;48.546;9.896;2022-12-29T15:32:53;6.10;99.90
21115;DHT22;10715;48.546;9.896;2022-12-29T15:35:31;6.00;99.90
21115;DHT22;10715;48.546;9.896;2022-12-29T15:37:58;5.90;99.90
21115;DHT22;10715;48.546;9.896;2022-12-29T15:40:27;5.70;99.90
21115;DHT22;10715;48.546;9.896;2022-12-29T15:45:41;5.50;99.90
21115;DHT22;10715;48.546;9.896;2022-12-29T15:48:15;5.30;99.90
21115;DHT22;10715;48.546;9.896;2022-12-29T15:50:42;5.20;99.90
21115;DHT22;10715;48.546;9.896;2022-12-29T15:53:22;5.10;99.90
21115;DHT22;10715;48.546;9.896;2022-12-29T15:55:51;5.00;99.90
21115;DHT22;10715;48.546;9.896;2022-12-29T15:58:21;4.90;99.90
21115;DHT22;10715;48.546;9.896;2022-12-29T16:00:49;4.80;99.90
21115;DHT22;10715;48.546;9.896;2022-12-29T16:03:16;4.80;99.90
21115;DHT22;10715;48.546;9.896;2022-12-29T16:05:53;4.70;99.90
21115;DHT22;10715;48.546;9.896;2022-12-29T16:08:31;4.70;99.90
21115;DHT22;10715;48.546;9.896;2022-12-29T16:11:21;4.60;99.90
21115;DHT22;10715;48.546;9.896;2022-12-29T16:13:48;4.50;99.90
21115;DHT22;10715;48.546;9.896;2022-12-29T16:16:26;4.40;99.90
21115;DHT22;10715;48.546;9.896;2022-12-29T16:18:54;4.40;99.90
21115;DHT22;10715;48.546;9.896;2022-12-29T16:21:25;4.30;99.90
21115;DHT22;10715;48.546;9.896;2022-12-29T16:23:53;4.30;99.90
21115;DHT22;10715;48.546;9.896;2022-12-29T16:26:21;4.30;99.90
21115;DHT22;10715;48.546;9.896;2022-12-29T16:28:52;4.20;99.90
21115;DHT22;10715;48.546;9.896;2022-12-29T16:33:57;4.20;99.90
21115;DHT22;10715;48.546;9.896;2022-12-29T16:36:32;4.20;99.90
21115;DHT22;10715;48.546;9.896;2022-12-29T16:39:20;4.10;99.90
21115;DHT22;10715;48.546;9.896;2022-12-29T16:50:38;3.80;99.90
21115;DHT22;10715;48.546;9.896;2022-12-29T16:53:05;3.80;99.90
21115;DHT22;10715;48.546;9.896;2022-12-29T16:55:32;3.70;99.90
21115;DHT22;10715;48.546;9.896;2022-12-29T16:57:58;3.70;99.90
21115;DHT22;10715;48.546;9.896;2022-12-29T17:00:34;3.60;99.90
21115;DHT22;10715;48.546;9.896;2022-12-29T17:03:02;3.60;99.90
21115;DHT22;10715;48.546;9.896;2022-12-29T17:05:28;3.60;99.90
21115;DHT22;10715;48.546;9.896;2022-12-29T17:07:54;3.60;99.90
21115;DHT22;10715;48.546;9.896;2022-12-29T17:10:26;3.60;99.90
21115;DHT22;10715;48.546;9.896;2022-12-29T17:13:12;3.60;99.90
21115;DHT22;10715;48.546;9.896;2022-12-29T17:15:37;3.60;99.90
21115;DHT22;10715;48.546;9.896;2022-12-29T17:18:03;3.60;99.90
21115;DHT22;10715;48.546;9.896;2022-12-29T17:20:31;3.70;99.90
21115;DHT22;10715;48.546;9.896;2022-12-29T17:22:58;3.80;99.90
21115;DHT22;10715;48.546;9.896;2022-12-29T17:25:33;3.80;99.90
21115;DHT22;10715;48.546;9.896;2022-12-29T17:30:28;3.90;99.90
21115;DHT22;10715;48.546;9.896;2022-12-29T17:32:58;3.90;99.90
21115;DHT22;10715;48.546;9.896;2022-12-29T17:35:27;3.90;99.90
21115;DHT22;10715;48.546;9.896;2022-12-29T17:37:53;4.00;99.90
21115;DHT22;10715;48.546;9.896;2022-12-29T17:40:26;4.00;99.90
21115;DHT22;10715;48.546;9.896;2022-12-29T17:42:54;4.10;99.90
21115;DHT22;10715;48.546;9.896;2022-12-29T17:45:31;4.20;99.90
21115;DHT22;10715;48.546;9.896;2022-12-29T17:47:58;4.20;99.90
21115;DHT22;10715;48.546;9.896;2022-12-29T17:50:28;4.20;99.90
21115;DHT22;10715;48.546;9.896;2022-12-29T17:52:57;4.20;99.90
21115;DHT22;10715;48.546;9.896;2022-12-29T17:55:24;4.20;99.90
21115;DHT22;10715;48.546;9.896;2022-12-29T17:57:50;4.10;99.90
21115;DHT22;10715;48.546;9.896;2022-12-29T18:00:17;4.20;99.90
21115;DHT22;10715;48.546;9.896;2022-12-29T18:02:44;4.10;99.90
21115;DHT22;10715;48.546;9.896;2022-12-29T18:05:20;4.20;99.90
21115;DHT22;10715;48.546;9.896;2022-12-29T18:07:46;4.20;99.90
21115;DHT22;10715;48.546;9.896;2022-12-29T18:10:13;4.20;99.90
21115;DHT22;10715;48.546;9.896;2022-12-29T18:12:41;4.20;99.90
21115;DHT22;10715;48.546;9.896;2022-12-29T18:15:23;4.20;99.90
21115;DHT22;10715;48.546;9.896;2022-12-29T18:17:54;4.30;99.90
21115;DHT22;10715;48.546;9.896;2022-12-29T18:20:23;4.30;99.90
21115;DHT22;10715;48.546;9.896;2022-12-29T18:22:49;4.40;99.90
21115;DHT22;10715;48.546;9.896;2022-12-29T18:25:24;4.40;99.90
21115;DHT22;10715;48.546;9.896;2022-12-29T18:27:50;4.40;99.90